sensor_id;sensor_type;location;lat;lon;timestamp;P1;durP1;ratioP1;P2;durP2;ratioP2
36321;SDS011;23564;48.290;11.460;2023-03-03T00:00:45;118.30;;;43.80;;
36321;SDS011;23564;48.290;11.460;2023-03-03T00:03:11;105.55;;;40.78;;
36321;SDS011;23564;48.290;11.460;2023-03-03T00:05:41;108.03;;;41.50;;
36321;SDS011;23564;48.290;11.460;2023-03-03T00:08:07;122.60;;;44.50;;
36321;SDS011;23564;48.290;11.460;2023-03-03T00:10:34;113.72;;;42.65;;
36321;SDS011;23564;48.290;11.460;2023-03-03T00:13:00;116.38;;;41.10;;
36321;SDS011;23564;48.290;11.460;2023-03-03T00:15:26;111.35;;;41.97;;
36321;SDS011;23564;48.290;11.460;2023-03-03T00:17:53;114.50;;;40.88;;
36321;SDS011;23564;48.290;11.460;2023-03-03T00:20:26;117.45;;;42.83;;
36321;SDS011;23564;48.290;11.460;2023-03-03T00:25:53;111.85;;;42.65;;
36321;SDS011;23564;48.290;11.460;2023-03-03T00:28:29;114.15;;;39.03;;
36321;SDS011;23564;48.290;11.460;2023-03-03T00:30:58;110.68;;;41.00;;
36321;SDS011;23564;48.290;11.460;2023-03-03T00:33:27;113.15;;;41.80;;
36321;SDS011;23564;48.290;11.460;2023-03-03T00:35:58;120.97;;;42.47;;
36321;SDS011;23564;48.290;11.460;2023-03-03T00:38:40;118.57;;;42.40;;
36321;SDS011;23564;48.290;11.460;2023-03-03T00:41:19;119.05;;;41.20;;
36321;SDS011;23564;48.290;11.460;2023-03-03T00:43:48;117.63;;;40.53;;
36321;SDS011;23564;48.290;11.460;2023-03-03T00:46:18;109.22;;;41.78;;
36321;SDS011;23564;48.290;11.460;2023-03-03T00:48:46;108.78;;;43.17;;
36321;SDS011;23564;48.290;11.460;2023-03-03T00:51:27;117.25;;;41.78;;
36321;SDS011;23564;48.290;11.460;2023-03-03T00:53:55;115.32;;;42.88;;
36321;SDS011;23564;48.290;11.460;2023-03-03T00:56:21;109.22;;;40.13;;
36321;SDS011;23564;48.290;11.460;2023-03-03T00:58:48;123.78;;;42.92;;
36321;SDS011;23564;48.290;11.460;2023-03-03T01:01:14;119.95;;;43.65;;
36321;SDS011;23564;48.290;11.460;2023-03-03T01:03:41;110.03;;;40.83;;
36321;SDS011;23564;48.290;11.460;2023-03-03T01:06:07;121.53;;;43.45;;
36321;SDS011;23564;48.290;11.460;2023-03-03T01:08:32;118.55;;;42.53;;
36321;SDS011;23564;48.290;11.460;2023-03-03T01:10:59;121.05;;;42.83;;
36321;SDS011;23564;48.290;11.460;2023-03-03T01:13:32;113.97;;;40.15;;
36321;SDS011;23564;48.290;11.460;2023-03-03T01:15:59;106.35;;;41.42;;
36321;SDS011;23564;48.290;11.460;2023-03-03T01:18:26;120.85;;;40.75;;
36321;SDS011;23564;48.290;11.460;2023-03-03T01:20:52;109.30;;;42.50;;
36321;SDS011;23564;48.290;11.460;2023-03-03T01:23:18;110.43;;;39.78;;
36321;SDS011;23564;48.290;11.460;2023-03-03T01:25:43;113.10;;;41.13;;
36321;SDS011;23564;48.290;11.460;2023-03-03T01:28:09;111.22;;;38.88;;
36321;SDS011;23564;48.290;11.460;2023-03-03T01:30:35;117.90;;;43.08;;
36321;SDS011;23564;48.290;11.460;2023-03-03T01:33:00;115.47;;;42.60;;
36321;SDS011;23564;48.290;11.460;2023-03-03T01:35:26;120.82;;;41.53;;
36321;SDS011;23564;48.290;11.460;2023-03-03T01:37:53;113.47;;;40.53;;
36321;SDS011;23564;48.290;11.460;2023-03-03T01:40:20;109.93;;;40.47;;
36321;SDS011;23564;48.290;11.460;2023-03-03T01:42:48;109.22;;;40.08;;
36321;SDS011;23564;48.290;11.460;2023-03-03T01:45:15;113.90;;;41.55;;
36321;SDS011;23564;48.290;11.460;2023-03-03T01:47:59;114.13;;;41.70;;
36321;SDS011;23564;48.290;11.460;2023-03-03T01:50:35;114.60;;;40.97;;
36321;SDS011;23564;48.290;11.460;2023-03-03T01:53:09;117.78;;;41.47;;
36321;SDS011;23564;48.290;11.460;2023-03-03T01:55:41;119.28;;;42.38;;
36321;SDS011;23564;48.290;11.460;2023-03-03T01:58:30;107.93;;;41.35;;
36321;SDS011;23564;48.290;11.460;2023-03-03T02:01:10;115.82;;;41.28;;
36321;SDS011;23564;48.290;11.460;2023-03-03T02:03:42;117.15;;;40.78;;
36321;SDS011;23564;48.290;11.460;2023-03-03T02:06:09;124.60;;;42.80;;
36321;SDS011;23564;48.290;11.460;2023-03-03T02:08:52;113.25;;;42.53;;
36321;SDS011;23564;48.290;11.460;2023-03-03T02:11:19;117.10;;;42.13;;
36321;SDS011;23564;48.290;11.460;2023-03-03T02:13:46;123.82;;;44.47;;
36321;SDS011;23564;48.290;11.460;2023-03-03T02:16:12;125.38;;;43.47;;
36321;SDS011;23564;48.290;11.460;2023-03-03T02:18:38;124.57;;;42.35;;
36321;SDS011;23564;48.290;11.460;2023-03-03T02:21:17;125.03;;;41.72;;
36321;SDS011;23564;48.290;11.460;2023-03-03T02:26:45;106.10;;;41.13;;
36321;SDS011;23564;48.290;11.460;2023-03-03T02:29:12;118.38;;;43.65;;
36321;SDS011;23564;48.290;11.460;2023-03-03T02:31:38;119.63;;;41.88;;
36321;SDS011;23564;48.290;11.460;2023-03-03T02:34:03;112.10;;;39.90;;
36321;SDS011;23564;48.290;11.460;2023-03-03T02:36:31;115.85;;;41.28;;
36321;SDS011;23564;48.290;11.460;2023-03-03T02:39:06;119.43;;;42.50;;
36321;SDS011;23564;48.290;11.460;2023-03-03T02:41:57;112.28;;;40.35;;
36321;SDS011;23564;48.290;11.460;2023-03-03T02:44:46;110.78;;;38.63;;
36321;SDS011;23564;48.290;11.460;2023-03-03T02:47:12;108.38;;;40.67;;
36321;SDS011;23564;48.290;11.460;2023-03-03T02:49:37;119.32;;;40.30;;
36321;SDS011;23564;48.290;11.460;2023-03-03T02:52:04;108.82;;;40.70;;
36321;SDS011;23564;48.290;11.460;2023-03-03T02:54:34;110.00;;;41.03;;
36321;SDS011;23564;48.290;11.460;2023-03-03T02:57:00;108.43;;;40.78;;
36321;SDS011;23564;48.290;11.460;2023-03-03T02:59:26;115.35;;;42.63;;
36321;SDS011;23564;48.290;11.460;2023-03-03T03:01:52;115.18;;;40.45;;
36321;SDS011;23564;48.290;11.460;2023-03-03T03:04:20;109.32;;;39.65;;
36321;SDS011;23564;48.290;11.460;2023-03-03T03:06:47;111.25;;;41.05;;
36321;SDS011;23564;48.290;11.460;2023-03-03T03:09:14;109.93;;;40.50;;
36321;SDS011;23564;48.290;11.460;2023-03-03T03:11:41;112.18;;;41.30;;
36321;SDS011;23564;48.290;11.460;2023-03-03T03:14:08;118.05;;;41.80;;
36321;SDS011;23564;48.290;11.460;2023-03-03T03:16:35;106.53;;;39.70;;
36321;SDS011;23564;48.290;11.460;2023-03-03T03:19:01;112.05;;;42.03;;
36321;SDS011;23564;48.290;11.460;2023-03-03T03:21:27;119.72;;;41.20;;
36321;SDS011;23564;48.290;11.460;2023-03-03T03:23:53;107.55;;;38.95;;
36321;SDS011;23564;48.290;11.460;2023-03-03T03:26:19;108.63;;;40.22;;
36321;SDS011;23564;48.290;11.460;2023-03-03T03:28:46;119.53;;;41.17;;
36321;SDS011;23564;48.290;11.460;2023-03-03T03:31:12;111.10;;;42.53;;
36321;SDS011;23564;48.290;11.460;2023-03-03T03:33:38;109.90;;;38.97;;
36321;SDS011;23564;48.290;11.460;2023-03-03T03:36:03;112.95;;;41.08;;
36321;SDS011;23564;48.290;11.460;2023-03-03T03:38:30;113.35;;;40.28;;
36321;SDS011;23564;48.290;11.460;2023-03-03T03:40:57;110.18;;;42.08;;
36321;SDS011;23564;48.290;11.460;2023-03-03T03:43:22;105.75;;;39.00;;
36321;SDS011;23564;48.290;11.460;2023-03-03T03:45:48;120.18;;;40.10;;
36321;SDS011;23564;48.290;11.460;2023-03-03T03:48:14;115.32;;;40.33;;
36321;SDS011;23564;48.290;11.460;2023-03-03T03:50:40;110.35;;;40.83;;
36321;SDS011;23564;48.290;11.460;2023-03-03T03:53:06;113.88;;;41.38;;
36321;SDS011;23564;48.290;11.460;2023-03-03T03:55:32;107.45;;;39.78;;
36321;SDS011;23564;48.290;11.460;2023-03-03T03:57:58;105.07;;;38.47;;
36321;SDS011;23564;48.290;11.460;2023-03-03T04:00:24;96.00;;;38.88;;
36321;SDS011;23564;48.290;11.460;2023-03-03T04:02:50;106.10;;;40.00;;
36321;SDS011;23564;48.290;11.460;2023-03-03T04:05:16;113.32;;;40.55;;
36321;SDS011;23564;48.290;11.460;2023-03-03T04:07:41;103.78;;;40.45;;
36321;SDS011;23564;48.290;11.460;2023-03-03T04:10:07;112.85;;;42.47;;
36321;SDS011;23564;48.290;11.460;2023-03-03T04:12:33;107.07;;;41.30;;
36321;SDS011;23564;48.290;11.460;2023-03-03T04:15:09;110.38;;;39.88;;
36321;SDS011;23564;48.290;11.460;2023-03-03T04:17:36;107.20;;;40.75;;
36321;SDS011;23564;48.290;11.460;2023-03-03T04:20:03;107.97;;;39.22;;
36321;SDS011;23564;48.290;11.460;2023-03-03T04:22:30;106.20;;;39.92;;
36321;SDS011;23564;48.290;11.460;2023-03-03T04:24:58;110.53;;;40.35;;
36321;SDS011;23564;48.290;11.460;2023-03-03T04:27:24;106.28;;;39.78;;
36321;SDS011;23564;48.290;11.460;2023-03-03T04:29:49;104.22;;;39.67;;
36321;SDS011;23564;48.290;11.460;2023-03-03T04:32:15;101.28;;;38.42;;
36321;SDS011;23564;48.290;11.460;2023-03-03T04:34:42;106.07;;;39.38;;
36321;SDS011;23564;48.290;11.460;2023-03-03T04:37:08;98.55;;;39.70;;
36321;SDS011;23564;48.290;11.460;2023-03-03T04:39:34;100.55;;;40.40;;
36321;SDS011;23564;48.290;11.460;2023-03-03T04:42:00;107.75;;;40.85;;
36321;SDS011;23564;48.290;11.460;2023-03-03T04:44:25;104.90;;;40.58;;
36321;SDS011;23564;48.290;11.460;2023-03-03T04:46:51;112.15;;;41.47;;
36321;SDS011;23564;48.290;11.460;2023-03-03T04:49:16;111.85;;;40.88;;
36321;SDS011;23564;48.290;11.460;2023-03-03T04:51:42;101.35;;;38.58;;
36321;SDS011;23564;48.290;11.460;2023-03-03T04:54:07;103.32;;;40.83;;
36321;SDS011;23564;48.290;11.460;2023-03-03T04:56:33;105.97;;;41.33;;
36321;SDS011;23564;48.290;11.460;2023-03-03T04:58:58;108.82;;;41.45;;
36321;SDS011;23564;48.290;11.460;2023-03-03T05:01:24;103.13;;;40.92;;
36321;SDS011;23564;48.290;11.460;2023-03-03T05:03:50;106.50;;;40.28;;
36321;SDS011;23564;48.290;11.460;2023-03-03T05:06:15;103.25;;;40.13;;
36321;SDS011;23564;48.290;11.460;2023-03-03T05:08:42;115.20;;;42.78;;
36321;SDS011;23564;48.290;11.460;2023-03-03T05:11:08;105.63;;;40.80;;
36321;SDS011;23564;48.290;11.460;2023-03-03T05:13:34;109.25;;;41.45;;
36321;SDS011;23564;48.290;11.460;2023-03-03T05:16:00;110.72;;;40.47;;
36321;SDS011;23564;48.290;11.460;2023-03-03T05:18:25;121.75;;;41.08;;
36321;SDS011;23564;48.290;11.460;2023-03-03T05:20:51;98.55;;;39.90;;
36321;SDS011;23564;48.290;11.460;2023-03-03T05:23:18;104.68;;;40.85;;
36321;SDS011;23564;48.290;11.460;2023-03-03T05:25:45;109.05;;;41.08;;
36321;SDS011;23564;48.290;11.460;2023-03-03T05:28:11;103.05;;;39.20;;
36321;SDS011;23564;48.290;11.460;2023-03-03T05:30:37;101.13;;;40.80;;
36321;SDS011;23564;48.290;11.460;2023-03-03T05:33:03;101.90;;;39.25;;
36321;SDS011;23564;48.290;11.460;2023-03-03T05:35:29;107.25;;;40.45;;
36321;SDS011;23564;48.290;11.460;2023-03-03T05:37:55;104.20;;;41.65;;
36321;SDS011;23564;48.290;11.460;2023-03-03T05:40:22;106.35;;;40.88;;
36321;SDS011;23564;48.290;11.460;2023-03-03T05:42:51;100.82;;;38.58;;
36321;SDS011;23564;48.290;11.460;2023-03-03T05:45:17;119.63;;;41.70;;
36321;SDS011;23564;48.290;11.460;2023-03-03T05:47:45;104.43;;;40.17;;
36321;SDS011;23564;48.290;11.460;2023-03-03T05:50:11;104.97;;;41.08;;
36321;SDS011;23564;48.290;11.460;2023-03-03T05:52:37;113.45;;;42.10;;
36321;SDS011;23564;48.290;11.460;2023-03-03T05:55:02;110.53;;;42.33;;
36321;SDS011;23564;48.290;11.460;2023-03-03T05:57:29;109.68;;;42.42;;
36321;SDS011;23564;48.290;11.460;2023-03-03T05:59:54;108.10;;;42.90;;
36321;SDS011;23564;48.290;11.460;2023-03-03T06:02:20;112.78;;;42.42;;
36321;SDS011;23564;48.290;11.460;2023-03-03T06:04:45;110.18;;;45.25;;
36321;SDS011;23564;48.290;11.460;2023-03-03T06:07:11;105.47;;;41.83;;
36321;SDS011;23564;48.290;11.460;2023-03-03T06:09:37;101.60;;;38.80;;
36321;SDS011;23564;48.290;11.460;2023-03-03T06:12:02;101.95;;;41.28;;
36321;SDS011;23564;48.290;11.460;2023-03-03T06:14:28;106.45;;;42.47;;
36321;SDS011;23564;48.290;11.460;2023-03-03T06:16:54;98.18;;;40.75;;
36321;SDS011;23564;48.290;11.460;2023-03-03T06:19:21;113.30;;;42.40;;
36321;SDS011;23564;48.290;11.460;2023-03-03T06:21:47;107.85;;;40.58;;
36321;SDS011;23564;48.290;11.460;2023-03-03T06:24:13;98.78;;;40.17;;
36321;SDS011;23564;48.290;11.460;2023-03-03T06:26:38;104.82;;;39.10;;
36321;SDS011;23564;48.290;11.460;2023-03-03T06:29:04;108.15;;;42.10;;
36321;SDS011;23564;48.290;11.460;2023-03-03T06:31:30;107.93;;;41.08;;
36321;SDS011;23564;48.290;11.460;2023-03-03T06:33:55;107.25;;;41.33;;
36321;SDS011;23564;48.290;11.460;2023-03-03T06:36:21;102.72;;;41.13;;
36321;SDS011;23564;48.290;11.460;2023-03-03T06:38:47;110.95;;;41.03;;
36321;SDS011;23564;48.290;11.460;2023-03-03T06:41:13;104.38;;;40.40;;
36321;SDS011;23564;48.290;11.460;2023-03-03T06:43:38;101.43;;;41.20;;
36321;SDS011;23564;48.290;11.460;2023-03-03T06:46:04;105.13;;;41.75;;
36321;SDS011;23564;48.290;11.460;2023-03-03T06:48:30;106.78;;;41.65;;
36321;SDS011;23564;48.290;11.460;2023-03-03T06:51:00;105.90;;;41.83;;
36321;SDS011;23564;48.290;11.460;2023-03-03T06:53:27;110.25;;;41.95;;
36321;SDS011;23564;48.290;11.460;2023-03-03T06:55:55;109.68;;;45.38;;
36321;SDS011;23564;48.290;11.460;2023-03-03T06:58:22;108.65;;;42.60;;
36321;SDS011;23564;48.290;11.460;2023-03-03T07:00:58;104.53;;;42.15;;
36321;SDS011;23564;48.290;11.460;2023-03-03T07:03:31;111.25;;;43.10;;
36321;SDS011;23564;48.290;11.460;2023-03-03T07:05:58;114.38;;;41.58;;
36321;SDS011;23564;48.290;11.460;2023-03-03T07:08:24;108.60;;;40.22;;
36321;SDS011;23564;48.290;11.460;2023-03-03T07:10:54;109.55;;;41.65;;
36321;SDS011;23564;48.290;11.460;2023-03-03T07:13:21;106.68;;;41.95;;
36321;SDS011;23564;48.290;11.460;2023-03-03T07:15:51;111.85;;;42.53;;
36321;SDS011;23564;48.290;11.460;2023-03-03T07:18:21;102.60;;;40.90;;
36321;SDS011;23564;48.290;11.460;2023-03-03T07:21:13;106.07;;;41.22;;
36321;SDS011;23564;48.290;11.460;2023-03-03T07:23:53;102.22;;;41.08;;
36321;SDS011;23564;48.290;11.460;2023-03-03T07:26:20;103.70;;;40.75;;
36321;SDS011;23564;48.290;11.460;2023-03-03T07:28:57;114.10;;;43.08;;
36321;SDS011;23564;48.290;11.460;2023-03-03T07:31:46;99.55;;;41.58;;
36321;SDS011;23564;48.290;11.460;2023-03-03T07:34:16;100.13;;;40.70;;
36321;SDS011;23564;48.290;11.460;2023-03-03T07:36:45;97.20;;;39.83;;
36321;SDS011;23564;48.290;11.460;2023-03-03T07:39:19;99.80;;;40.78;;
36321;SDS011;23564;48.290;11.460;2023-03-03T07:41:53;105.40;;;41.13;;
36321;SDS011;23564;48.290;11.460;2023-03-03T07:44:39;93.95;;;39.42;;
36321;SDS011;23564;48.290;11.460;2023-03-03T07:47:37;107.45;;;41.35;;
36321;SDS011;23564;48.290;11.460;2023-03-03T07:50:00;100.40;;;41.28;;
36321;SDS011;23564;48.290;11.460;2023-03-03T07:52:40;103.68;;;39.95;;
36321;SDS011;23564;48.290;11.460;2023-03-03T07:55:22;100.70;;;39.40;;
36321;SDS011;23564;48.290;11.460;2023-03-03T08:03:16;96.45;;;41.75;;
36321;SDS011;23564;48.290;11.460;2023-03-03T08:05:48;99.05;;;41.22;;
36321;SDS011;23564;48.290;11.460;2023-03-03T08:08:35;98.03;;;40.15;;
36321;SDS011;23564;48.290;11.460;2023-03-03T08:11:06;100.22;;;40.88;;
36321;SDS011;23564;48.290;11.460;2023-03-03T08:18:34;105.88;;;44.53;;
36321;SDS011;23564;48.290;11.460;2023-03-03T08:21:44;96.25;;;40.80;;
36321;SDS011;23564;48.290;11.460;2023-03-03T08:23:51;105.40;;;40.75;;
36321;SDS011;23564;48.290;11.460;2023-03-03T08:26:21;96.60;;;40.22;;
36321;SDS011;23564;48.290;11.460;2023-03-03T08:28:48;98.93;;;39.80;;
36321;SDS011;23564;48.290;11.460;2023-03-03T08:31:13;103.63;;;41.45;;
36321;SDS011;23564;48.290;11.460;2023-03-03T08:33:41;100.38;;;40.90;;
36321;SDS011;23564;48.290;11.460;2023-03-03T08:36:07;99.30;;;42.20;;
36321;SDS011;23564;48.290;11.460;2023-03-03T08:38:33;96.00;;;40.45;;
36321;SDS011;23564;48.290;11.460;2023-03-03T08:40:59;102.80;;;41.28;;
36321;SDS011;23564;48.290;11.460;2023-03-03T08:43:25;96.00;;;40.90;;
36321;SDS011;23564;48.290;11.460;2023-03-03T08:45:51;104.53;;;41.45;;
36321;SDS011;23564;48.290;11.460;2023-03-03T08:48:19;99.57;;;42.35;;
36321;SDS011;23564;48.290;11.460;2023-03-03T08:50:45;96.82;;;42.30;;
36321;SDS011;23564;48.290;11.460;2023-03-03T08:53:12;98.00;;;41.28;;
36321;SDS011;23564;48.290;11.460;2023-03-03T08:55:39;99.88;;;41.35;;
36321;SDS011;23564;48.290;11.460;2023-03-03T08:58:05;91.32;;;39.78;;
36321;SDS011;23564;48.290;11.460;2023-03-03T09:00:31;93.70;;;42.13;;
36321;SDS011;23564;48.290;11.460;2023-03-03T09:02:58;99.70;;;42.08;;
36321;SDS011;23564;48.290;11.460;2023-03-03T09:05:24;89.60;;;40.35;;
36321;SDS011;23564;48.290;11.460;2023-03-03T09:07:52;98.72;;;41.35;;
36321;SDS011;23564;48.290;11.460;2023-03-03T09:10:20;90.80;;;41.85;;
36321;SDS011;23564;48.290;11.460;2023-03-03T09:12:51;97.60;;;42.10;;
36321;SDS011;23564;48.290;11.460;2023-03-03T09:18:21;93.43;;;40.47;;
36321;SDS011;23564;48.290;11.460;2023-03-03T09:20:47;92.18;;;39.60;;
36321;SDS011;23564;48.290;11.460;2023-03-03T09:25:52;94.60;;;41.17;;
36321;SDS011;23564;48.290;11.460;2023-03-03T09:28:21;89.38;;;40.45;;
36321;SDS011;23564;48.290;11.460;2023-03-03T09:30:53;100.30;;;41.53;;
36321;SDS011;23564;48.290;11.460;2023-03-03T09:35:53;90.43;;;40.70;;
36321;SDS011;23564;48.290;11.460;2023-03-03T09:38:28;91.07;;;42.05;;
36321;SDS011;23564;48.290;11.460;2023-03-03T09:43:48;88.93;;;38.40;;
36321;SDS011;23564;48.290;11.460;2023-03-03T09:46:39;88.88;;;40.50;;
36321;SDS011;23564;48.290;11.460;2023-03-03T09:49:30;88.38;;;39.53;;
36321;SDS011;23564;48.290;11.460;2023-03-03T09:52:14;84.20;;;38.13;;
36321;SDS011;23564;48.290;11.460;2023-03-03T10:01:01;91.35;;;38.75;;
36321;SDS011;23564;48.290;11.460;2023-03-03T10:09:09;89.25;;;42.17;;
36321;SDS011;23564;48.290;11.460;2023-03-03T10:22:51;85.28;;;40.13;;
36321;SDS011;23564;48.290;11.460;2023-03-03T10:34:02;86.47;;;39.47;;
36321;SDS011;23564;48.290;11.460;2023-03-03T10:39:47;86.82;;;40.25;;
36321;SDS011;23564;48.290;11.460;2023-03-03T10:42:25;89.38;;;40.30;;
36321;SDS011;23564;48.290;11.460;2023-03-03T10:47:58;91.93;;;40.35;;
36321;SDS011;23564;48.290;11.460;2023-03-03T10:54:18;82.53;;;39.47;;
36321;SDS011;23564;48.290;11.460;2023-03-03T10:59:13;83.40;;;38.47;;
36321;SDS011;23564;48.290;11.460;2023-03-03T11:01:55;77.85;;;37.65;;
36321;SDS011;23564;48.290;11.460;2023-03-03T11:07:18;81.90;;;37.35;;
36321;SDS011;23564;48.290;11.460;2023-03-03T11:18:02;84.43;;;38.45;;
36321;SDS011;23564;48.290;11.460;2023-03-03T11:20:35;82.25;;;40.47;;
36321;SDS011;23564;48.290;11.460;2023-03-03T11:23:14;77.32;;;38.28;;
36321;SDS011;23564;48.290;11.460;2023-03-03T11:26:06;83.38;;;38.70;;
36321;SDS011;23564;48.290;11.460;2023-03-03T11:28:49;83.68;;;38.45;;
36321;SDS011;23564;48.290;11.460;2023-03-03T11:31:30;75.30;;;39.03;;
36321;SDS011;23564;48.290;11.460;2023-03-03T11:37:21;79.15;;;39.13;;
36321;SDS011;23564;48.290;11.460;2023-03-03T11:39:54;85.28;;;39.83;;
36321;SDS011;23564;48.290;11.460;2023-03-03T11:43:00;83.00;;;38.50;;
36321;SDS011;23564;48.290;11.460;2023-03-03T11:45:39;79.63;;;37.72;;
36321;SDS011;23564;48.290;11.460;2023-03-03T11:51:09;75.07;;;37.20;;
36321;SDS011;23564;48.290;11.460;2023-03-03T11:56:21;83.70;;;38.28;;
36321;SDS011;23564;48.290;11.460;2023-03-03T11:59:01;77.03;;;37.28;;
36321;SDS011;23564;48.290;11.460;2023-03-03T12:04:43;73.47;;;36.47;;
36321;SDS011;23564;48.290;11.460;2023-03-03T12:07:17;86.30;;;38.70;;
36321;SDS011;23564;48.290;11.460;2023-03-03T12:12:41;79.90;;;38.85;;
36321;SDS011;23564;48.290;11.460;2023-03-03T12:15:17;79.05;;;37.03;;
36321;SDS011;23564;48.290;11.460;2023-03-03T12:25:39;71.63;;;34.80;;
36321;SDS011;23564;48.290;11.460;2023-03-03T12:28:18;75.10;;;35.65;;
36321;SDS011;23564;48.290;11.460;2023-03-03T12:39:26;73.85;;;35.72;;
36321;SDS011;23564;48.290;11.460;2023-03-03T12:48:08;74.10;;;37.67;;
36321;SDS011;23564;48.290;11.460;2023-03-03T13:06:57;74.53;;;37.20;;
36321;SDS011;23564;48.290;11.460;2023-03-03T13:20:32;74.38;;;35.53;;
36321;SDS011;23564;48.290;11.460;2023-03-03T13:25:49;74.05;;;36.88;;
36321;SDS011;23564;48.290;11.460;2023-03-03T13:28:24;74.05;;;36.50;;
36321;SDS011;23564;48.290;11.460;2023-03-03T13:31:00;78.40;;;37.05;;
36321;SDS011;23564;48.290;11.460;2023-03-03T13:33:36;81.38;;;36.80;;
36321;SDS011;23564;48.290;11.460;2023-03-03T13:36:05;75.32;;;36.67;;
36321;SDS011;23564;48.290;11.460;2023-03-03T13:38:56;74.97;;;36.38;;
36321;SDS011;23564;48.290;11.460;2023-03-03T13:41:47;76.47;;;37.13;;
36321;SDS011;23564;48.290;11.460;2023-03-03T13:46:56;85.85;;;42.22;;
36321;SDS011;23564;48.290;11.460;2023-03-03T13:53:03;78.63;;;35.42;;
36321;SDS011;23564;48.290;11.460;2023-03-03T13:55:34;71.97;;;35.78;;
36321;SDS011;23564;48.290;11.460;2023-03-03T14:01:02;82.60;;;38.20;;
36321;SDS011;23564;48.290;11.460;2023-03-03T14:03:36;83.88;;;39.72;;
36321;SDS011;23564;48.290;11.460;2023-03-03T14:06:17;90.47;;;41.53;;
36321;SDS011;23564;48.290;11.460;2023-03-03T14:11:28;76.63;;;37.25;;
36321;SDS011;23564;48.290;11.460;2023-03-03T14:13:59;82.47;;;38.53;;
36321;SDS011;23564;48.290;11.460;2023-03-03T14:16:56;87.47;;;42.78;;
36321;SDS011;23564;48.290;11.460;2023-03-03T14:19:29;86.10;;;41.43;;
36321;SDS011;23564;48.290;11.460;2023-03-03T14:22:03;85.18;;;41.03;;
36321;SDS011;23564;48.290;11.460;2023-03-03T14:25:02;81.53;;;40.22;;
36321;SDS011;23564;48.290;11.460;2023-03-03T14:27:36;84.57;;;38.30;;
36321;SDS011;23564;48.290;11.460;2023-03-03T14:32:57;82.75;;;36.80;;
36321;SDS011;23564;48.290;11.460;2023-03-03T14:35:23;83.53;;;37.72;;
36321;SDS011;23564;48.290;11.460;2023-03-03T14:37:53;77.68;;;36.63;;
36321;SDS011;23564;48.290;11.460;2023-03-03T14:40:36;84.43;;;38.42;;
36321;SDS011;23564;48.290;11.460;2023-03-03T14:43:25;84.15;;;40.08;;
36321;SDS011;23564;48.290;11.460;2023-03-03T14:46:16;82.85;;;37.67;;
36321;SDS011;23564;48.290;11.460;2023-03-03T14:48:54;77.80;;;36.30;;
36321;SDS011;23564;48.290;11.460;2023-03-03T14:51:25;73.22;;;37.08;;
36321;SDS011;23564;48.290;11.460;2023-03-03T14:53:55;75.00;;;34.80;;
36321;SDS011;23564;48.290;11.460;2023-03-03T14:56:25;72.22;;;35.33;;
36321;SDS011;23564;48.290;11.460;2023-03-03T15:01:38;74.63;;;34.72;;
36321;SDS011;23564;48.290;11.460;2023-03-03T15:04:25;78.90;;;37.50;;
36321;SDS011;23564;48.290;11.460;2023-03-03T15:06:52;71.38;;;36.42;;
36321;SDS011;23564;48.290;11.460;2023-03-03T15:09:20;76.25;;;35.83;;
36321;SDS011;23564;48.290;11.460;2023-03-03T15:17:32;74.20;;;38.03;;
36321;SDS011;23564;48.290;11.460;2023-03-03T15:31:32;79.97;;;35.97;;
36321;SDS011;23564;48.290;11.460;2023-03-03T15:34:39;77.80;;;37.35;;
36321;SDS011;23564;48.290;11.460;2023-03-03T15:43:37;77.93;;;38.17;;
36321;SDS011;23564;48.290;11.460;2023-03-03T15:46:01;83.05;;;37.83;;
36321;SDS011;23564;48.290;11.460;2023-03-03T15:48:51;75.25;;;37.70;;
36321;SDS011;23564;48.290;11.460;2023-03-03T15:56:55;81.15;;;37.10;;
36321;SDS011;23564;48.290;11.460;2023-03-03T16:04:30;82.22;;;37.67;;
36321;SDS011;23564;48.290;11.460;2023-03-03T16:09:47;166.05;;;66.07;;
36321;SDS011;23564;48.290;11.460;2023-03-03T16:12:36;134.45;;;57.85;;
36321;SDS011;23564;48.290;11.460;2023-03-03T16:28:58;74.03;;;36.72;;
36321;SDS011;23564;48.290;11.460;2023-03-03T16:31:41;75.53;;;38.78;;
36321;SDS011;23564;48.290;11.460;2023-03-03T16:34:31;73.55;;;34.55;;
36321;SDS011;23564;48.290;11.460;2023-03-03T16:37:13;89.38;;;46.28;;
36321;SDS011;23564;48.290;11.460;2023-03-03T16:42:30;70.60;;;35.45;;
36321;SDS011;23564;48.290;11.460;2023-03-03T16:45:16;72.40;;;36.83;;
36321;SDS011;23564;48.290;11.460;2023-03-03T16:53:45;76.88;;;35.70;;
36321;SDS011;23564;48.290;11.460;2023-03-03T16:56:22;75.90;;;35.72;;
36321;SDS011;23564;48.290;11.460;2023-03-03T16:59:20;73.93;;;35.38;;
36321;SDS011;23564;48.290;11.460;2023-03-03T17:02:05;69.45;;;33.22;;
36321;SDS011;23564;48.290;11.460;2023-03-03T17:04:53;77.60;;;34.72;;
36321;SDS011;23564;48.290;11.460;2023-03-03T17:10:31;76.20;;;34.83;;
36321;SDS011;23564;48.290;11.460;2023-03-03T17:13:27;69.10;;;34.45;;
36321;SDS011;23564;48.290;11.460;2023-03-03T17:21:34;75.88;;;36.83;;
36321;SDS011;23564;48.290;11.460;2023-03-03T17:27:22;74.85;;;36.20;;
36321;SDS011;23564;48.290;11.460;2023-03-03T17:29:54;84.07;;;37.88;;
36321;SDS011;23564;48.290;11.460;2023-03-03T17:32:39;79.75;;;36.95;;
36321;SDS011;23564;48.290;11.460;2023-03-03T17:35:29;83.05;;;38.08;;
36321;SDS011;23564;48.290;11.460;2023-03-03T17:38:16;92.00;;;38.30;;
36321;SDS011;23564;48.290;11.460;2023-03-03T17:43:16;76.80;;;38.00;;
36321;SDS011;23564;48.290;11.460;2023-03-03T17:45:49;82.18;;;39.50;;
36321;SDS011;23564;48.290;11.460;2023-03-03T17:48:30;81.22;;;39.30;;
36321;SDS011;23564;48.290;11.460;2023-03-03T17:51:19;86.05;;;40.28;;
36321;SDS011;23564;48.290;11.460;2023-03-03T17:54:20;95.10;;;40.78;;
36321;SDS011;23564;48.290;11.460;2023-03-03T17:59:54;82.80;;;40.58;;
36321;SDS011;23564;48.290;11.460;2023-03-03T18:07:34;83.57;;;41.28;;
36321;SDS011;23564;48.290;11.460;2023-03-03T18:16:14;92.63;;;40.20;;
36321;SDS011;23564;48.290;11.460;2023-03-03T18:18:59;88.10;;;40.10;;
36321;SDS011;23564;48.290;11.460;2023-03-03T18:21:42;90.25;;;42.15;;
36321;SDS011;23564;48.290;11.460;2023-03-03T18:24:32;87.07;;;41.53;;
36321;SDS011;23564;48.290;11.460;2023-03-03T18:38:31;95.85;;;43.25;;
36321;SDS011;23564;48.290;11.460;2023-03-03T18:46:55;90.05;;;42.92;;
36321;SDS011;23564;48.290;11.460;2023-03-03T18:49:02;97.80;;;44.28;;
36321;SDS011;23564;48.290;11.460;2023-03-03T18:57:10;96.95;;;42.42;;
36321;SDS011;23564;48.290;11.460;2023-03-03T18:59:38;100.50;;;42.65;;
36321;SDS011;23564;48.290;11.460;2023-03-03T19:04:38;105.82;;;46.70;;
36321;SDS011;23564;48.290;11.460;2023-03-03T19:07:55;107.57;;;45.20;;